Time;durP1;ratioP1;P1;durP2;ratioP2;P2;SDS_P1;SDS_P2;PMS_P1;PMS_P2;Temp;Humidity;BMP_temperature;BMP_pressure;BME280_temperature;BME280_humidity;BME280_pressure;Samples;Min_cycle;Max_cycle;Signal;HPM_P1;HPM_P2
2021/05/05 00:00:41;;;;;;;6.45;1.95;;;8.30;65.80;;;;;;4996219;28;20101;-71
2021/05/05 00:03:07;;;;;;;9.60;2.22;;;8.30;65.60;;;;;;4996579;28;20027;-71
2021/05/05 00:05:33;;;;;;;7.72;2.08;;;8.30;66.00;;;;;;4996865;28;20035;-71
2021/05/05 00:07:59;;;;;;;10.32;2.97;;;8.30;66.20;;;;;;4996840;28;20026;-71
2021/05/05 00:10:25;;;;;;;7.20;2.38;;;8.40;66.70;;;;;;4997242;28;20030;-71
2021/05/05 00:12:51;;;;;;;4.80;1.80;;;8.40;66.40;;;;;;4997203;28;20039;-71
2021/05/05 00:15:21;;;;;;;6.10;2.05;;;8.50;66.70;;;;;;4996024;28;20092;-71
2021/05/05 00:17:47;;;;;;;7.45;2.00;;;8.50;66.40;;;;;;4997368;28;20028;-71
2021/05/05 00:20:15;;;;;;;10.20;2.05;;;8.50;66.40;;;;;;4996187;28;20022;-71
2021/05/05 00:22:41;;;;;;;7.10;2.35;;;8.60;66.50;;;;;;4996710;28;20037;-71
2021/05/05 00:25:08;;;;;;;8.07;2.40;;;8.60;66.30;;;;;;4996539;28;20069;-71
2021/05/05 00:27:34;;;;;;;7.95;2.53;;;8.60;66.60;;;;;;4995947;28;20026;-71
2021/05/05 00:30:00;;;;;;;12.43;2.42;;;8.60;66.40;;;;;;4996461;28;20114;-71
2021/05/05 00:32:26;;;;;;;5.72;2.08;;;8.50;66.40;;;;;;4997129;28;20026;-71
2021/05/05 00:34:52;;;;;;;8.60;2.10;;;8.50;66.40;;;;;;4996837;28;20026;-71
2021/05/05 00:37:18;;;;;;;11.88;2.08;;;8.40;66.10;;;;;;4997270;28;20092;-71
2021/05/05 00:39:44;;;;;;;7.68;2.00;;;8.40;66.40;;;;;;4996384;28;20026;-71
2021/05/05 00:42:10;;;;;;;6.63;2.20;;;8.30;66.30;;;;;;4996552;28;20498;-71
2021/05/05 00:44:36;;;;;;;7.50;1.75;;;8.30;66.10;;;;;;4996489;28;20030;-71
2021/05/05 00:47:02;;;;;;;7.97;2.20;;;8.30;66.10;;;;;;4997039;28;20040;-71
2021/05/05 00:49:27;;;;;;;8.50;2.60;;;8.20;66.20;;;;;;4996831;28;20030;-71
2021/05/05 00:51:53;;;;;;;7.95;2.97;;;8.20;66.70;;;;;;4997152;28;20015;-71
2021/05/05 00:54:19;;;;;;;10.40;2.85;;;8.10;66.90;;;;;;4996309;28;20054;-71
2021/05/05 00:56:45;;;;;;;8.23;2.67;;;8.10;66.90;;;;;;4996359;28;20019;-71
2021/05/05 00:59:12;;;;;;;10.48;2.45;;;8.00;67.20;;;;;;4985869;28;20081;-71
2021/05/05 01:01:40;;;;;;;7.25;2.30;;;8.00;66.70;;;;;;4999483;28;20030;-71
2021/05/05 01:04:07;;;;;;;8.52;1.77;;;8.00;66.90;;;;;;5000188;28;20030;-71
2021/05/05 01:06:33;;;;;;;6.25;2.10;;;7.90;67.00;;;;;;5000235;28;20044;-71
2021/05/05 01:09:00;;;;;;;9.90;2.08;;;7.90;67.60;;;;;;4998816;28;20104;-71
2021/05/05 01:11:28;;;;;;;9.77;2.50;;;7.90;67.10;;;;;;4999826;28;20023;-71
2021/05/05 01:13:54;;;;;;;9.68;2.10;;;7.80;67.30;;;;;;5000344;28;20086;-71
2021/05/05 01:16:19;;;;;;;10.40;2.47;;;7.80;67.50;;;;;;4999390;28;20047;-71
2021/05/05 01:18:45;;;;;;;7.93;2.13;;;7.80;67.40;;;;;;5000040;28;20093;-71
2021/05/05 01:21:11;;;;;;;7.97;2.47;;;7.80;67.80;;;;;;5000208;28;20591;-71
2021/05/05 01:23:37;;;;;;;6.80;2.08;;;7.80;67.20;;;;;;5004163;28;20129;-71
2021/05/05 01:26:04;;;;;;;8.88;2.00;;;7.70;67.90;;;;;;4999763;28;20373;-71
2021/05/05 01:28:30;;;;;;;11.88;2.78;;;7.70;68.10;;;;;;4999090;28;20027;-71
2021/05/05 01:30:56;;;;;;;11.45;2.08;;;7.70;68.20;;;;;;4987089;28;20057;-71
2021/05/05 01:33:22;;;;;;;8.90;2.40;;;7.70;68.20;;;;;;4999749;28;20057;-71
2021/05/05 01:35:49;;;;;;;6.97;2.38;;;7.60;68.40;;;;;;4999390;28;20564;-71
2021/05/05 01:38:16;;;;;;;11.07;2.80;;;7.60;68.30;;;;;;4999785;28;20031;-71
2021/05/05 01:40:44;;;;;;;11.23;2.47;;;7.60;68.90;;;;;;4999260;28;20018;-71
2021/05/05 01:43:10;;;;;;;9.38;2.05;;;7.50;68.90;;;;;;4998703;28;20022;-71
2021/05/05 01:45:36;;;;;;;12.63;2.83;;;7.50;68.70;;;;;;4998885;28;20031;-71
2021/05/05 01:48:06;;;;;;;8.90;2.10;;;7.50;68.50;;;;;;4999848;28;20473;-71
2021/05/05 01:50:32;;;;;;;5.90;2.30;;;7.40;68.30;;;;;;4999169;28;20034;-71
2021/05/05 01:52:58;;;;;;;9.40;2.00;;;7.40;68.40;;;;;;4999375;28;20477;-71
2021/05/05 01:55:24;;;;;;;8.80;2.65;;;7.40;68.90;;;;;;4994733;28;20026;-71
2021/05/05 01:57:50;;;;;;;6.68;2.53;;;7.40;68.90;;;;;;4998808;28;20089;-71
2021/05/05 02:00:21;;;;;;;8.63;2.20;;;7.40;68.80;;;;;;4998487;28;20022;-71
2021/05/05 02:02:47;;;;;;;10.00;2.30;;;7.30;68.80;;;;;;4999418;28;20050;-71
2021/05/05 02:05:14;;;;;;;6.28;2.33;;;7.30;69.00;;;;;;4998994;28;20077;-71
2021/05/05 02:07:40;;;;;;;9.57;2.25;;;7.30;68.80;;;;;;4985072;28;20036;-71
2021/05/05 02:10:10;;;;;;;8.95;2.40;;;7.30;69.00;;;;;;4998901;28;20027;-71
2021/05/05 02:12:36;;;;;;;8.80;2.58;;;7.20;68.90;;;;;;4998661;28;20026;-71
2021/05/05 02:15:04;;;;;;;9.07;2.53;;;7.20;69.20;;;;;;4998009;28;20053;-71
2021/05/05 02:17:30;;;;;;;6.63;2.40;;;7.20;68.90;;;;;;4998667;28;20065;-71
2021/05/05 02:19:56;;;;;;;8.68;2.33;;;7.20;69.50;;;;;;4998461;28;20480;-71
2021/05/05 02:22:22;;;;;;;11.35;2.60;;;7.10;69.30;;;;;;4999134;28;20026;-71
2021/05/05 02:24:48;;;;;;;12.38;2.08;;;7.10;69.90;;;;;;4998875;28;20030;-71
2021/05/05 02:27:14;;;;;;;7.82;2.72;;;7.10;69.50;;;;;;4998126;28;20034;-71
2021/05/05 02:29:40;;;;;;;10.80;3.15;;;7.10;69.90;;;;;;4997717;28;20064;-71
2021/05/05 02:32:10;;;;;;;5.97;2.15;;;7.10;69.80;;;;;;4998967;28;20065;-71
2021/05/05 02:34:37;;;;;;;10.10;2.92;;;7.00;70.00;;;;;;4998171;28;20022;-71
2021/05/05 02:37:09;;;;;;;7.78;2.40;;;7.10;70.30;;;;;;4997811;28;20041;-71
2021/05/05 02:39:39;;;;;;;12.05;3.03;;;7.00;70.00;;;;;;4997974;28;20477;-71
2021/05/05 02:42:10;;;;;;;7.10;1.85;;;7.00;70.20;;;;;;4998735;28;20034;-71
2021/05/05 02:44:37;;;;;;;6.85;2.78;;;7.00;70.20;;;;;;4997743;28;20010;-71
2021/05/05 02:47:03;;;;;;;9.75;2.10;;;7.00;70.30;;;;;;4998949;28;20038;-71
2021/05/05 02:49:31;;;;;;;6.30;2.22;;;7.00;70.00;;;;;;4998022;28;20046;-71
2021/05/05 02:51:58;;;;;;;6.97;2.92;;;7.00;70.50;;;;;;4998203;28;20019;-71
2021/05/05 02:54:24;;;;;;;10.00;2.53;;;7.00;70.60;;;;;;4998032;28;20452;-71
2021/05/05 02:56:50;;;;;;;10.93;2.83;;;7.00;70.70;;;;;;4998492;28;20034;-71
2021/05/05 02:59:16;;;;;;;8.05;2.22;;;6.90;70.50;;;;;;4996570;28;20029;-71
2021/05/05 03:01:42;;;;;;;7.38;2.15;;;6.90;70.70;;;;;;4997297;28;20026;-71
2021/05/05 03:04:07;;;;;;;9.63;2.85;;;7.00;71.00;;;;;;4998244;28;20027;-71
2021/05/05 03:06:33;;;;;;;9.70;2.47;;;6.90;70.80;;;;;;4997808;28;20030;-71
2021/05/05 03:09:00;;;;;;;9.38;2.22;;;7.00;71.50;;;;;;4998166;28;20456;-71
2021/05/05 03:11:26;;;;;;;8.15;2.38;;;7.00;70.80;;;;;;4997785;28;20515;-71
2021/05/05 03:13:53;;;;;;;10.45;2.78;;;7.00;71.20;;;;;;4997477;28;20030;-71
2021/05/05 03:16:18;;;;;;;9.07;2.20;;;7.00;71.10;;;;;;4989514;28;20062;-71
2021/05/05 03:18:44;;;;;;;12.68;2.47;;;7.10;71.10;;;;;;4997908;28;20027;-71
2021/05/05 03:21:11;;;;;;;7.20;2.35;;;7.10;70.80;;;;;;4996520;28;20026;-70
2021/05/05 03:23:37;;;;;;;8.13;2.50;;;7.10;70.80;;;;;;5000757;28;20022;-71
2021/05/05 03:26:02;;;;;;;12.07;2.78;;;7.10;70.50;;;;;;4997197;28;20036;-71
2021/05/05 03:28:28;;;;;;;9.23;2.78;;;7.10;70.20;;;;;;4997984;28;20051;-71
2021/05/05 03:30:54;;;;;;;6.93;2.05;;;7.10;70.60;;;;;;4997150;28;20468;-71
2021/05/05 03:33:20;;;;;;;9.95;2.50;;;7.10;70.20;;;;;;4997250;28;20393;-71
2021/05/05 03:35:46;;;;;;;7.72;2.30;;;7.10;70.20;;;;;;4997503;28;20456;-71
2021/05/05 03:38:11;;;;;;;10.07;2.92;;;7.00;70.10;;;;;;4985066;28;20080;-71
2021/05/05 03:40:37;;;;;;;12.48;3.75;;;7.00;69.90;;;;;;4997440;28;20031;-71
2021/05/05 03:43:03;;;;;;;10.25;2.22;;;6.90;69.90;;;;;;4996317;28;20034;-71
2021/05/05 03:45:30;;;;;;;7.63;2.15;;;6.90;70.10;;;;;;4997201;28;20035;-71
2021/05/05 03:47:56;;;;;;;9.88;2.72;;;6.80;70.00;;;;;;4997510;28;20025;-71
2021/05/05 03:50:23;;;;;;;9.10;2.40;;;6.80;70.80;;;;;;4997716;28;20362;-71
2021/05/05 03:52:49;;;;;;;8.75;2.25;;;6.70;70.20;;;;;;4996505;28;20109;-71
2021/05/05 03:55:15;;;;;;;14.10;3.28;;;6.70;70.60;;;;;;4997758;28;20030;-71
2021/05/05 03:57:41;;;;;;;13.02;2.67;;;6.70;70.60;;;;;;4997240;28;20074;-71
2021/05/05 04:00:07;;;;;;;7.20;2.53;;;6.70;70.50;;;;;;4995911;28;20519;-71
2021/05/05 04:02:33;;;;;;;8.82;2.80;;;6.70;70.90;;;;;;4996955;28;20022;-71
2021/05/05 04:04:59;;;;;;;11.32;2.45;;;6.60;70.40;;;;;;4997571;28;20041;-71
2021/05/05 04:07:25;;;;;;;10.02;2.13;;;6.60;70.50;;;;;;4997042;28;20030;-71
2021/05/05 04:09:51;;;;;;;7.28;2.40;;;6.60;70.40;;;;;;4996555;28;20104;-71
2021/05/05 04:12:17;;;;;;;7.53;2.20;;;6.60;70.40;;;;;;4996750;28;20027;-71
2021/05/05 04:14:43;;;;;;;9.68;2.13;;;6.60;69.90;;;;;;4996938;28;20034;-72
2021/05/05 04:17:09;;;;;;;7.10;2.17;;;6.50;70.20;;;;;;4997097;28;20531;-71
2021/05/05 04:19:36;;;;;;;8.55;2.72;;;6.50;69.50;;;;;;4996441;28;20023;-71
2021/05/05 04:22:03;;;;;;;7.40;2.10;;;6.50;70.20;;;;;;4997059;28;20023;-71
2021/05/05 04:24:29;;;;;;;9.15;2.13;;;6.50;70.40;;;;;;4982006;28;20031;-71
2021/05/05 04:26:55;;;;;;;7.70;2.15;;;6.50;70.60;;;;;;4996191;28;20505;-71
2021/05/05 04:29:21;;;;;;;8.40;2.50;;;6.40;70.40;;;;;;4996634;28;20446;-70
2021/05/05 04:31:48;;;;;;;8.07;2.33;;;6.40;69.90;;;;;;4996759;28;20042;-71
2021/05/05 04:34:15;;;;;;;10.55;2.40;;;6.40;69.50;;;;;;4998689;28;20023;-71
2021/05/05 04:36:41;;;;;;;7.20;2.20;;;6.40;69.00;;;;;;5000072;28;20030;-71
2021/05/05 04:39:07;;;;;;;4.18;1.52;;;6.40;68.70;;;;;;5000617;28;20149;-70
2021/05/05 04:41:33;;;;;;;5.00;2.00;;;6.40;68.40;;;;;;4982465;28;20022;-70
2021/05/05 04:43:59;;;;;;;8.00;2.10;;;6.30;68.60;;;;;;4999368;28;20038;-70
2021/05/05 04:46:25;;;;;;;6.30;1.77;;;6.30;69.00;;;;;;5000471;28;20595;-70
2021/05/05 04:48:50;;;;;;;8.02;2.95;;;6.30;69.40;;;;;;5000883;28;20034;-70
2021/05/05 04:51:16;;;;;;;7.00;2.40;;;6.30;69.00;;;;;;4999880;28;20026;-70
2021/05/05 04:53:42;;;;;;;6.30;2.00;;;6.30;69.50;;;;;;5000391;28;20030;-70
2021/05/05 04:56:08;;;;;;;6.95;2.20;;;6.40;69.80;;;;;;4999257;28;20080;-70
2021/05/05 04:58:33;;;;;;;9.15;2.50;;;6.40;70.30;;;;;;4999547;28;20022;-70
2021/05/05 05:00:59;;;;;;;9.57;2.50;;;6.50;70.70;;;;;;4999459;28;20066;-70
2021/05/05 05:03:25;;;;;;;10.40;2.90;;;6.50;71.20;;;;;;5000104;28;20037;-70
2021/05/05 05:05:51;;;;;;;8.18;2.58;;;6.60;71.10;;;;;;5000591;28;20500;-70
2021/05/05 05:08:16;;;;;;;6.70;2.20;;;6.50;70.50;;;;;;5000004;28;20034;-70
2021/05/05 05:10:42;;;;;;;9.98;2.50;;;6.50;70.10;;;;;;4993215;28;20034;-70
2021/05/05 05:13:08;;;;;;;12.02;3.17;;;6.50;70.40;;;;;;4999878;28;20030;-70
2021/05/05 05:15:34;;;;;;;7.35;2.00;;;6.40;69.70;;;;;;4999814;28;20050;-70
2021/05/05 05:18:00;;;;;;;7.88;2.67;;;6.40;69.70;;;;;;4999315;28;20050;-71
2021/05/05 05:20:26;;;;;;;8.82;2.13;;;6.40;69.80;;;;;;5000078;28;20031;-71
2021/05/05 05:22:55;;;;;;;5.50;2.30;;;6.30;69.50;;;;;;4999740;28;20108;-71
2021/05/05 05:25:21;;;;;;;8.93;2.90;;;6.30;69.50;;;;;;5000103;28;20109;-72
2021/05/05 05:27:47;;;;;;;6.60;2.17;;;6.30;69.30;;;;;;4999256;28;20046;-71
2021/05/05 05:30:14;;;;;;;8.57;3.75;;;6.30;69.40;;;;;;4998950;28;20088;-72
2021/05/05 05:32:39;;;;;;;7.95;2.72;;;6.30;69.60;;;;;;4978771;28;20055;-71
2021/05/05 05:35:05;;;;;;;7.97;2.95;;;6.30;69.70;;;;;;4995895;28;20038;-71
2021/05/05 05:37:31;;;;;;;8.38;2.75;;;6.30;70.30;;;;;;4998657;28;20022;-70
2021/05/05 05:39:57;;;;;;;7.35;2.65;;;6.40;70.50;;;;;;4998957;28;20030;-68
2021/05/05 05:42:23;;;;;;;6.60;2.70;;;6.30;70.60;;;;;;4999398;28;20034;-70
2021/05/05 05:44:49;;;;;;;9.18;3.55;;;6.30;70.60;;;;;;4998769;28;20080;-68
2021/05/05 05:47:15;;;;;;;8.90;2.50;;;6.40;71.30;;;;;;4998770;28;20022;-69
2021/05/05 05:49:40;;;;;;;8.55;2.50;;;6.40;71.00;;;;;;4998851;28;20392;-68
2021/05/05 05:52:06;;;;;;;8.05;2.55;;;6.40;71.00;;;;;;4999791;28;20053;-72
2021/05/05 05:54:32;;;;;;;9.43;2.47;;;6.40;70.90;;;;;;4998931;28;20106;-71
2021/05/05 05:56:58;;;;;;;7.47;2.30;;;6.50;71.80;;;;;;4998729;28;20484;-71
2021/05/05 05:59:24;;;;;;;13.40;2.33;;;6.60;71.70;;;;;;4996741;28;20022;-70
2021/05/05 06:01:49;;;;;;;6.60;2.28;;;6.50;71.40;;;;;;4998937;28;20032;-70
2021/05/05 06:04:17;;;;;;;9.40;2.42;;;6.60;71.10;;;;;;4998796;28;20038;-70
2021/05/05 06:06:43;;;;;;;7.72;2.63;;;6.60;71.50;;;;;;4998593;28;20039;-70
2021/05/05 06:09:09;;;;;;;6.72;2.10;;;6.60;71.60;;;;;;4976655;28;20038;-70
2021/05/05 06:11:35;;;;;;;12.02;2.70;;;6.70;71.20;;;;;;4979883;28;20025;-70
2021/05/05 06:14:01;;;;;;;6.20;2.10;;;6.70;71.90;;;;;;4994641;28;20401;-70
2021/05/05 06:16:26;;;;;;;8.25;2.45;;;6.80;72.10;;;;;;4992512;28;20094;-70
2021/05/05 06:18:52;;;;;;;7.28;2.13;;;6.80;71.90;;;;;;4997447;28;20041;-70
2021/05/05 06:21:18;;;;;;;10.40;2.58;;;6.80;72.00;;;;;;4996710;28;20015;-70
2021/05/05 06:23:44;;;;;;;6.85;2.30;;;6.90;72.00;;;;;;4994789;28;20030;-70
2021/05/05 06:26:13;;;;;;;5.72;2.05;;;6.90;71.90;;;;;;4977639;28;20027;-70
2021/05/05 06:28:39;;;;;;;9.23;2.45;;;7.00;72.10;;;;;;4996589;28;20401;-70
2021/05/05 06:31:05;;;;;;;8.32;2.88;;;7.10;72.20;;;;;;4985961;28;20038;-71
2021/05/05 06:33:31;;;;;;;10.18;2.70;;;7.10;72.10;;;;;;4992399;28;20068;-71
2021/05/05 06:35:57;;;;;;;9.00;2.38;;;7.30;72.00;;;;;;4998089;28;20033;-70
2021/05/05 06:38:23;;;;;;;7.43;2.47;;;7.40;72.00;;;;;;4997895;28;20030;-70
2021/05/05 06:40:49;;;;;;;9.23;2.45;;;7.60;72.00;;;;;;4997768;28;20033;-71
2021/05/05 06:43:14;;;;;;;8.70;2.13;;;7.70;71.70;;;;;;4980763;28;20037;-71
2021/05/05 06:45:40;;;;;;;6.57;1.90;;;7.80;71.50;;;;;;4997352;28;20088;-71
2021/05/05 06:48:06;;;;;;;6.18;2.03;;;7.90;71.20;;;;;;4998217;28;20026;-71
2021/05/05 06:50:32;;;;;;;6.43;1.63;;;8.10;70.80;;;;;;4998334;28;20034;-71
2021/05/05 06:52:58;;;;;;;5.15;1.83;;;8.30;70.80;;;;;;4979938;28;20037;-71
2021/05/05 06:55:24;;;;;;;6.43;1.98;;;8.60;70.50;;;;;;4998173;28;20034;-72
2021/05/05 06:57:50;;;;;;;6.75;1.92;;;8.90;70.10;;;;;;4997303;28;20026;-72
2021/05/05 07:00:17;;;;;;;6.00;2.00;;;9.10;69.50;;;;;;4995492;28;20027;-71
2021/05/05 07:02:43;;;;;;;4.88;1.80;;;9.40;69.10;;;;;;4997683;28;20030;-72
2021/05/05 07:05:10;;;;;;;6.97;1.70;;;9.80;68.40;;;;;;4997328;28;20037;-71
2021/05/05 07:07:35;;;;;;;7.70;1.92;;;10.10;67.60;;;;;;4998033;28;20030;-71
2021/05/05 07:10:02;;;;;;;7.25;1.92;;;10.50;67.10;;;;;;4997934;28;20037;-71
2021/05/05 07:12:28;;;;;;;4.63;1.60;;;10.90;66.30;;;;;;4997393;28;20038;-71
2021/05/05 07:14:54;;;;;;;5.35;2.40;;;11.30;66.40;;;;;;4997109;28;20030;-71
2021/05/05 07:17:20;;;;;;;5.40;1.60;;;11.70;66.40;;;;;;4997744;28;20026;-71
2021/05/05 07:19:46;;;;;;;7.43;1.73;;;12.10;64.10;;;;;;4997586;28;20029;-71
2021/05/05 07:22:12;;;;;;;6.38;2.00;;;12.50;62.40;;;;;;4977194;28;20035;-71
2021/05/05 07:24:39;;;;;;;5.75;1.90;;;12.80;62.60;;;;;;4997127;28;20101;-71
2021/05/05 07:27:05;;;;;;;6.60;1.70;;;13.10;60.60;;;;;;4997022;28;20536;-71
2021/05/05 07:29:31;;;;;;;7.93;1.83;;;13.40;60.30;;;;;;4995869;28;20022;-71
2021/05/05 07:31:56;;;;;;;7.13;1.77;;;13.70;59.20;;;;;;4997072;28;20094;-71
2021/05/05 07:34:24;;;;;;;6.35;1.73;;;13.90;59.70;;;;;;4997570;28;20045;-71
2021/05/05 07:36:51;;;;;;;4.53;1.52;;;14.20;59.80;;;;;;4997581;28;20033;-71
2021/05/05 07:45:06;;;;;;;6.30;1.67;;;15.20;58.70;;;;;;4997149;28;20049;-71
2021/05/05 07:47:27;;;;;;;6.15;2.08;;;15.50;58.10;;;;;;4997945;28;20062;-71
2021/05/05 07:49:55;;;;;;;6.20;1.55;;;15.90;56.50;;;;;;4997415;28;20516;-71
2021/05/05 07:52:21;;;;;;;7.72;1.90;;;16.20;54.60;;;;;;4997149;28;20401;-71
2021/05/05 07:54:48;;;;;;;5.97;1.73;;;16.40;54.60;;;;;;4997363;28;20027;-71
2021/05/05 07:57:14;;;;;;;3.88;1.50;;;16.60;53.80;;;;;;4997603;28;20092;-71
2021/05/05 07:59:40;;;;;;;5.78;1.80;;;16.80;54.40;;;;;;4997178;28;20019;-71
2021/05/05 08:02:07;;;;;;;6.95;1.92;;;17.00;54.50;;;;;;4974182;28;20453;-71
2021/05/05 08:04:33;;;;;;;5.95;1.52;;;17.20;54.00;;;;;;4995291;28;20085;-71
2021/05/05 08:07:00;;;;;;;6.45;1.73;;;17.40;52.70;;;;;;4997206;28;20054;-71
2021/05/05 08:09:27;;;;;;;7.25;1.73;;;17.70;51.70;;;;;;4983960;28;20030;-71
2021/05/05 08:11:53;;;;;;;5.88;1.60;;;17.80;51.10;;;;;;5001864;28;20034;-71
2021/05/05 08:14:19;;;;;;;7.63;2.22;;;18.00;51.80;;;;;;5000530;28;20037;-72
2021/05/05 08:16:46;;;;;;;8.65;2.20;;;18.20;51.00;;;;;;5000739;28;20050;-71
2021/05/05 08:19:13;;;;;;;6.15;2.47;;;18.40;50.60;;;;;;5001072;28;20061;-71
2021/05/05 08:21:40;;;;;;;9.52;5.50;;;18.50;51.60;;;;;;4994204;28;20034;-71
2021/05/05 08:24:07;;;;;;;10.45;2.53;;;18.80;51.30;;;;;;5009758;28;20141;-72
2021/05/05 08:26:33;;;;;;;8.50;2.15;;;19.00;51.40;;;;;;4998886;28;20038;-71
2021/05/05 08:28:58;;;;;;;7.35;1.92;;;19.20;51.30;;;;;;5000886;28;20026;-72
2021/05/05 08:31:25;;;;;;;4.88;1.48;;;19.40;50.90;;;;;;5000302;28;20030;-71
2021/05/05 08:33:51;;;;;;;5.85;1.70;;;19.70;52.00;;;;;;5001312;28;20030;-71
2021/05/05 08:36:17;;;;;;;6.55;1.73;;;20.00;49.10;;;;;;4997107;28;20030;-72
2021/05/05 08:38:43;;;;;;;4.63;1.73;;;20.20;47.70;;;;;;5000657;28;20049;-72
2021/05/05 08:41:10;;;;;;;5.28;1.77;;;20.40;46.50;;;;;;5000662;28;20038;-72
2021/05/05 08:43:36;;;;;;;7.30;1.80;;;20.50;46.70;;;;;;5000374;28;20026;-72
2021/05/05 08:46:05;;;;;;;8.65;1.95;;;20.70;47.50;;;;;;5000597;28;20057;-71
2021/05/05 08:48:31;;;;;;;6.10;1.58;;;20.80;46.80;;;;;;4999840;28;20040;-72
2021/05/05 08:50:57;;;;;;;6.20;1.63;;;21.10;50.20;;;;;;5000491;28;20027;-72
2021/05/05 08:53:23;;;;;;;8.45;2.40;;;21.30;45.20;;;;;;4999701;28;20042;-72
2021/05/05 08:55:49;;;;;;;8.20;1.67;;;21.40;47.10;;;;;;5001002;28;20088;-72
2021/05/05 08:58:15;;;;;;;5.70;1.50;;;21.50;47.00;;;;;;5000500;28;20109;-72
2021/05/05 09:00:41;;;;;;;5.72;1.48;;;21.70;45.30;;;;;;4999248;28;20389;-72
2021/05/05 09:03:08;;;;;;;5.80;1.55;;;22.00;44.10;;;;;;5000309;28;20081;-71
2021/05/05 09:06:03;;;;;;;5.47;1.65;;;22.10;43.90;;;;;;4999352;28;20034;-72
2021/05/05 09:08:31;;;;;;;5.88;1.55;;;22.30;43.60;;;;;;4998968;28;20397;-72
2021/05/05 09:11:03;;;;;;;5.40;1.58;;;22.60;47.50;;;;;;5000163;28;20459;-72
2021/05/05 09:13:50;;;;;;;7.75;1.80;;;22.80;48.30;;;;;;4999235;28;20026;-72
2021/05/05 09:16:22;;;;;;;7.22;1.88;;;23.30;46.50;;;;;;4999319;28;20100;-72
2021/05/05 09:18:54;;;;;;;;;;;23.60;43.70;;;;;;4988303;28;20072;-71
2021/05/05 09:21:24;;;;;;;7.60;2.55;;;23.70;42.50;;;;;;4999096;28;19914;-72
2021/05/05 09:23:50;;;;;;;6.03;1.95;;;23.10;41.50;;;;;;5007265;28;20058;-71
2021/05/05 09:26:36;;;;;;;5.93;2.20;;;22.50;42.30;;;;;;4989134;28;20109;-71
2021/05/05 09:29:02;;;;;;;6.70;1.67;;;21.80;41.30;;;;;;4994380;28;20030;-72
2021/05/05 09:31:35;;;;;;;7.25;1.77;;;21.30;41.70;;;;;;4997994;28;20030;-72
2021/05/05 09:34:02;;;;;;;5.55;1.73;;;20.80;42.10;;;;;;4999944;28;20496;-71
2021/05/05 09:36:28;;;;;;;5.90;1.60;;;20.50;42.40;;;;;;4999055;28;20031;-71
2021/05/05 09:38:55;;;;;;;5.10;1.40;;;20.10;41.90;;;;;;5000262;28;20026;-71
2021/05/05 09:41:22;;;;;;;4.15;1.40;;;19.70;43.40;;;;;;4999300;28;20105;-71
2021/05/05 09:43:49;;;;;;;7.68;1.70;;;19.70;43.40;;;;;;4978773;28;20369;-70
2021/05/05 09:46:43;;;;;;;5.82;1.20;;;19.80;42.50;;;;;;4997272;28;20499;-71
2021/05/05 09:49:28;;;;;;;7.13;2.00;;;19.60;43.10;;;;;;4990140;28;20031;-71
2021/05/05 09:52:00;;;;;;;5.60;1.92;;;19.40;43.90;;;;;;4991567;28;20022;-72
2021/05/05 09:54:39;;;;;;;5.35;1.70;;;19.50;47.30;;;;;;4999226;28;20057;-73
2021/05/05 09:57:23;;;;;;;6.32;1.40;;;20.00;45.60;;;;;;4999201;28;20038;-70
2021/05/05 10:00:03;;;;;;;7.07;1.55;;;20.10;43.00;;;;;;4999150;28;20089;-76
2021/05/05 10:02:39;;;;;;;5.40;1.70;;;19.80;42.80;;;;;;4992666;28;20034;-72
2021/05/05 10:05:06;;;;;;;7.72;2.03;;;19.30;43.00;;;;;;4996432;28;20051;-72
2021/05/05 10:07:52;;;;;;;6.13;1.90;;;18.70;43.00;;;;;;4999228;28;20038;-71
2021/05/05 10:10:19;;;;;;;8.38;2.72;;;18.10;44.80;;;;;;4998761;28;20567;-72
2021/05/05 10:12:45;;;;;;;11.13;5.28;;;17.60;46.20;;;;;;4991765;28;20022;-72
2021/05/05 10:15:13;;;;;;;5.38;2.55;;;17.10;47.50;;;;;;4998270;28;20496;-71
2021/05/05 10:17:39;;;;;;;3.63;1.77;;;16.80;49.00;;;;;;4998825;28;20050;-71
2021/05/05 10:20:06;;;;;;;5.75;1.45;;;16.50;49.40;;;;;;4999082;28;20444;-72
2021/05/05 10:22:32;;;;;;;5.07;1.30;;;16.20;50.50;;;;;;5000742;28;20050;-72
2021/05/05 10:25:00;;;;;;;8.43;1.83;;;16.10;51.90;;;;;;4999372;28;20031;-73
2021/05/05 10:27:26;;;;;;;8.70;2.28;;;16.10;52.60;;;;;;4998627;28;20026;-72
2021/05/05 10:29:53;;;;;;;9.43;3.42;;;16.20;51.60;;;;;;4995285;28;20027;-72
2021/05/05 10:32:29;;;;;;;10.90;5.22;;;16.20;51.50;;;;;;4998680;28;20081;-71
2021/05/05 10:34:55;;;;;;;5.05;2.20;;;16.10;51.30;;;;;;4998809;28;20025;-71
2021/05/05 10:37:43;;;;;;;6.75;2.13;;;16.10;50.90;;;;;;4998516;28;20019;-70
2021/05/05 10:40:25;;;;;;;4.00;1.52;;;15.80;50.20;;;;;;4998445;28;20045;-70
2021/05/05 10:42:57;;;;;;;4.63;1.67;;;15.60;50.50;;;;;;4998444;28;20481;-71
2021/05/05 10:45:45;;;;;;;4.03;1.30;;;15.30;50.30;;;;;;4997517;28;20034;-70
2021/05/05 10:48:16;;;;;;;3.00;1.40;;;15.20;50.60;;;;;;4993637;28;20026;-70
2021/05/05 10:50:49;;;;;;;4.47;1.13;;;15.10;50.70;;;;;;4998738;28;20058;-70
2021/05/05 10:53:16;;;;;;;2.88;1.00;;;15.20;50.10;;;;;;4998191;28;20022;-71
2021/05/05 10:56:03;;;;;;;4.00;1.20;;;15.20;49.70;;;;;;4998553;28;20034;-70
2021/05/05 10:58:32;;;;;;;5.28;1.45;;;15.40;48.60;;;;;;4985913;28;20038;-71
2021/05/05 11:01:05;;;;;;;4.15;1.30;;;15.60;49.40;;;;;;4980776;28;20037;-70
2021/05/05 11:03:46;;;;;;;4.60;1.20;;;16.20;48.80;;;;;;4996879;28;20018;-71
2021/05/05 11:06:33;;;;;;;4.45;1.15;;;16.90;48.00;;;;;;4998018;28;20027;-71
2021/05/05 11:09:15;;;;;;;5.47;1.20;;;17.70;48.30;;;;;;4998069;28;20026;-71
2021/05/05 11:11:46;;;;;;;3.45;0.93;;;18.80;46.60;;;;;;4995292;28;20048;-71
2021/05/05 11:14:24;;;;;;;4.97;1.13;;;20.00;43.90;;;;;;4997958;28;20022;-71
2021/05/05 11:19:47;;;;;;;4.13;1.30;;;22.20;47.30;;;;;;4982264;28;20039;-71
2021/05/05 11:22:22;;;;;;;7.10;3.05;;;23.40;46.80;;;;;;4988365;28;20026;-71
2021/05/05 11:24:50;;;;;;;4.63;1.90;;;23.90;39.80;;;;;;4988073;28;20046;-71
2021/05/05 11:27:18;;;;;;;4.18;1.17;;;24.00;39.80;;;;;;4993000;28;20023;-71
2021/05/05 11:29:47;;;;;;;3.72;1.13;;;24.10;40.90;;;;;;4994281;28;20385;-72
2021/05/05 11:32:26;;;;;;;6.28;2.08;;;24.10;39.10;;;;;;4998030;28;20102;-71
2021/05/05 11:34:53;;;;;;;3.05;0.95;;;23.70;38.10;;;;;;4997726;28;20493;-71
2021/05/05 11:37:22;;;;;;;5.30;1.30;;;23.10;38.60;;;;;;4998345;28;20034;-71
2021/05/05 11:39:54;;;;;;;3.80;1.35;;;22.30;37.20;;;;;;4997780;28;20023;-71
2021/05/05 11:42:24;;;;;;;;;;;21.40;39.10;;;;;;4997989;28;20027;-71
2021/05/05 11:44:55;;;;;;;5.00;1.40;;;20.50;40.70;;;;;;4995824;28;19906;-71
2021/05/05 11:47:25;;;;;;;3.60;1.42;;;19.60;42.60;;;;;;4997766;28;20109;-71
2021/05/05 11:49:57;;;;;;;6.35;2.08;;;19.10;43.30;;;;;;4997224;28;20018;-74
2021/05/05 11:52:31;;;;;;;4.75;1.67;;;18.70;44.70;;;;;;4994552;28;20080;-71
2021/05/05 11:55:00;;;;;;;4.90;1.60;;;18.40;45.20;;;;;;4989910;28;20033;-71
2021/05/05 11:57:31;;;;;;;4.00;1.35;;;18.20;45.40;;;;;;4997645;28;20018;-71
2021/05/05 12:00:16;;;;;;;5.82;1.60;;;18.10;44.90;;;;;;4996709;28;20030;-72
2021/05/05 12:03:02;;;;;;;4.88;1.63;;;17.90;45.30;;;;;;4997048;28;20531;-72
2021/05/05 12:05:36;;;;;;;5.82;1.38;;;18.10;45.30;;;;;;4989595;28;20058;-72
2021/05/05 12:08:08;;;;;;;5.05;1.52;;;18.30;44.90;;;;;;4996737;28;20023;-72
2021/05/05 12:10:43;;;;;;;7.60;1.63;;;18.60;45.00;;;;;;4996638;28;20034;-72
2021/05/05 12:13:10;;;;;;;5.75;1.50;;;18.90;44.30;;;;;;4996550;28;20030;-71
2021/05/05 12:15:39;;;;;;;3.55;1.35;;;19.10;43.20;;;;;;4986511;28;20093;-72
2021/05/05 12:18:21;;;;;;;5.97;1.88;;;19.10;41.90;;;;;;4992940;28;20019;-72
2021/05/05 12:20:49;;;;;;;5.73;1.53;;;19.00;43.20;;;;;;4997725;28;20022;-73
2021/05/05 12:23:16;;;;;;;3.72;1.10;;;18.90;43.40;;;;;;4998260;28;20284;-73
2021/05/05 12:25:43;;;;;;;3.05;1.23;;;18.90;43.80;;;;;;4993702;28;20037;-72
2021/05/05 12:28:13;;;;;;;4.57;1.35;;;18.90;43.70;;;;;;4996421;28;20062;-72
2021/05/05 12:30:52;;;;;;;4.03;1.40;;;18.80;43.20;;;;;;4997354;28;20030;-72
2021/05/05 12:33:34;;;;;;;4.57;1.10;;;18.60;44.50;;;;;;4996820;28;20026;-72
2021/05/05 12:36:02;;;;;;;5.47;1.50;;;18.70;45.10;;;;;;4996960;28;20090;-72
2021/05/05 12:38:34;;;;;;;4.82;2.03;;;18.70;44.00;;;;;;4980109;28;20086;-72
2021/05/05 12:41:02;;;;;;;5.10;1.33;;;18.60;44.10;;;;;;4997543;28;20030;-73
2021/05/05 12:43:28;;;;;;;4.85;1.27;;;18.60;44.00;;;;;;4995527;28;20114;-72
2021/05/05 12:45:56;;;;;;;3.22;1.23;;;18.60;44.30;;;;;;4996252;28;20022;-71
2021/05/05 12:48:37;;;;;;;4.70;1.30;;;18.60;45.70;;;;;;4996681;28;20039;-71
2021/05/05 12:51:10;;;;;;;3.78;1.20;;;18.70;44.30;;;;;;4996269;28;20030;-71
2021/05/05 12:53:53;;;;;;;4.25;1.30;;;18.70;44.80;;;;;;4992436;28;20121;-71
2021/05/05 12:56:21;;;;;;;3.97;1.30;;;18.70;45.50;;;;;;4996165;28;20030;-71
2021/05/05 12:58:48;;;;;;;4.65;1.38;;;18.60;45.60;;;;;;5000505;28;20030;-71
2021/05/05 13:01:15;;;;;;;3.67;1.30;;;18.60;44.10;;;;;;5000172;28;20054;-70
2021/05/05 13:03:45;;;;;;;5.88;1.63;;;18.60;42.90;;;;;;4999351;28;20022;-71
2021/05/05 13:06:14;;;;;;;6.43;1.70;;;18.40;44.10;;;;;;4996259;28;20030;-71